KLM1011 EHAM-EDDK
Flight info
| Callsign | KLM1011 |
|---|---|
| Flight time | N/A |
| Altitude | 23000 |
| Route | ARNEM L620 SONEB Z841 GETNI T858 KOPAG |
| Aircraft | E190/M-SDE3GILORVW/S |
Departure
| Time | 2026-04-18 10:04 |
|---|---|
| Airport | Amsterdam Airport Schiphol (EHAM) |
Arrival
| Time | N/A |
|---|---|
| Airport | Cologne Bonn Airport (EDDK) |
| Time | Latitude | Longitude | Altitude | Speed | Heading |
|---|---|---|---|---|---|
| 2026-04-18 09:42 | 52.30336 | 4.76212 | -2 ft | 0 kts | 58° |
| 2026-04-18 09:54 | 52.30335 | 4.76211 | -2 ft | 1 kts | 58° |
| 2026-04-18 09:55 | 52.30327 | 4.76189 | -2 ft | 3 kts | 63° |
| 2026-04-18 09:55 | 52.30320 | 4.76161 | -2 ft | 3 kts | 91° |
| 2026-04-18 09:55 | 52.30323 | 4.76139 | -2 ft | 1 kts | 140° |
| 2026-04-18 09:55 | 52.30325 | 4.76136 | -2 ft | 3 kts | 141° |
| 2026-04-18 09:58 | 52.30323 | 4.76138 | -2 ft | 1 kts | 141° |
| 2026-04-18 09:58 | 52.30312 | 4.76148 | -2 ft | 3 kts | 150° |
| 2026-04-18 09:58 | 52.30288 | 4.76173 | -2 ft | 6 kts | 147° |
| 2026-04-18 09:59 | 52.30244 | 4.76218 | -2 ft | 9 kts | 147° |
| 2026-04-18 09:59 | 52.30180 | 4.76265 | -2 ft | 12 kts | 169° |
| 2026-04-18 09:59 | 52.30137 | 4.76363 | -2 ft | 13 kts | 71° |
| 2026-04-18 10:00 | 52.30241 | 4.76634 | -2 ft | 17 kts | 57° |
| 2026-04-18 10:00 | 52.30307 | 4.76807 | -2 ft | 20 kts | 58° |
| 2026-04-18 10:00 | 52.30384 | 4.77007 | -2 ft | 22 kts | 59° |
| 2026-04-18 10:00 | 52.30434 | 4.77147 | -2 ft | 10 kts | 59° |
| 2026-04-18 10:01 | 52.30477 | 4.77254 | -2 ft | 12 kts | 57° |
| 2026-04-18 10:01 | 52.30528 | 4.77384 | -2 ft | 15 kts | 57° |
| 2026-04-18 10:01 | 52.30556 | 4.77543 | -2 ft | 15 kts | 126° |
| 2026-04-18 10:01 | 52.30462 | 4.77632 | -2 ft | 16 kts | 158° |
| 2026-04-18 10:02 | 52.30385 | 4.77562 | -3 ft | 0 kts | 237° |
| 2026-04-18 10:03 | 52.30379 | 4.77546 | -3 ft | 15 kts | 237° |
| 2026-04-18 10:03 | 52.30156 | 4.76967 | -4 ft | 103 kts | 238° |
| 2026-04-18 10:04 | 52.29638 | 4.75606 | 53 ft | 175 kts | 239° |
| 2026-04-18 10:04 | 52.28908 | 4.73673 | 646 ft | 219 kts | 239° |
| 2026-04-18 10:04 | 52.28055 | 4.71460 | 1620 ft | 244 kts | 238° |
| 2026-04-18 10:04 | 52.27132 | 4.69042 | 3193 ft | 254 kts | 239° |
| 2026-04-18 10:05 | 52.26152 | 4.66561 | 4821 ft | 265 kts | 237° |
| 2026-04-18 10:05 | 52.25067 | 4.63890 | 5303 ft | 312 kts | 236° |
| 2026-04-18 10:05 | 52.23481 | 4.61530 | 4860 ft | 309 kts | 210° |
| 2026-04-18 10:05 | 52.21461 | 4.60816 | 5042 ft | 286 kts | 181° |
| 2026-04-18 10:06 | 52.19596 | 4.61554 | 5134 ft | 273 kts | 160° |